Time;durP1;ratioP1;P1;durP2;ratioP2;P2;SDS_P1;SDS_P2;PMS_P1;PMS_P2;Temp;Humidity;BMP_temperature;BMP_pressure;BME280_temperature;BME280_humidity;BME280_pressure;Samples;Min_cycle;Max_cycle;Signal;HPM_P1;HPM_P2
2023/04/07 00:04:19;;;;;;;14.40;6.75;;;;;;;5.57;36.81;97939.22;12750291;23;20508;-81
2023/04/07 00:09:40;;;;;;;12.80;6.72;;;;;;;5.55;36.90;97930.72;12772242;23;20014;-81
2023/04/07 00:15:01;;;;;;;10.73;6.57;;;;;;;5.57;36.51;97934.41;12771216;23;20037;-81
2023/04/07 00:20:22;;;;;;;10.43;6.13;;;;;;;5.53;37.13;97938.88;12750637;23;20044;-81
2023/04/07 00:25:43;;;;;;;11.73;7.35;;;;;;;5.52;36.94;97931.84;12791158;23;20028;-81
2023/04/07 00:31:04;;;;;;;11.80;7.45;;;;;;;5.57;37.35;97941.97;12751708;23;20025;-81
2023/04/07 00:36:25;;;;;;;11.93;6.45;;;;;;;5.56;37.73;97927.41;12813130;23;20073;-81
2023/04/07 00:41:46;;;;;;;12.20;6.30;;;;;;;5.61;37.17;97926.47;12791257;23;19997;-81
2023/04/07 00:47:07;;;;;;;9.95;6.25;;;;;;;5.59;38.00;97920.00;12770854;23;20158;-81
2023/04/07 00:52:28;;;;;;;10.10;6.32;;;;;;;5.59;37.88;97911.69;12792083;23;20018;-81
2023/04/07 00:57:50;;;;;;;12.13;7.38;;;;;;;5.62;37.40;97913.38;12810446;23;20027;-80
2023/04/07 01:03:17;;;;;;;9.98;6.53;;;;;;;5.57;37.95;97905.97;12745316;23;20089;-81
2023/04/07 01:08:50;;;;;;;10.70;6.75;;;;;;;5.55;37.88;97900.28;12766191;23;20040;-79
2023/04/07 01:14:11;;;;;;;11.73;7.07;;;;;;;5.54;38.44;97898.81;12763275;23;20028;-80
2023/04/07 01:19:54;;;;;;;12.88;7.63;;;;;;;5.51;38.22;97897.88;12762859;23;20027;-80
2023/04/07 01:25:18;;;;;;;11.20;6.40;;;;;;;5.43;38.24;97892.38;12803254;23;20024;-80
2023/04/07 01:30:40;;;;;;;11.80;6.57;;;;;;;5.36;38.17;97893.09;12782900;23;20474;-80
2023/04/07 01:36:01;;;;;;;9.07;6.47;;;;;;;5.35;38.48;97890.91;12741733;23;20256;-80
2023/04/07 01:41:22;;;;;;;8.38;5.45;;;;;;;5.28;38.78;97881.31;12763152;23;20021;-81
2023/04/07 01:46:43;;;;;;;12.30;5.63;;;;;;;5.20;39.11;97888.88;12782598;23;20006;-80
2023/04/07 01:52:04;;;;;;;10.27;6.50;;;;;;;5.09;39.19;97883.72;12741823;23;20037;-81
2023/04/07 01:57:25;;;;;;;8.90;5.47;;;;;;;5.05;39.05;97875.06;12761807;23;20018;-81
2023/04/07 02:02:54;;;;;;;12.13;6.22;;;;;;;5.04;38.83;97874.31;12743118;23;20069;-80
2023/04/07 02:08:17;;;;;;;12.82;6.32;;;;;;;4.98;39.76;97867.50;12762638;23;20061;-78
2023/04/07 02:13:38;;;;;;;14.35;6.95;;;;;;;4.95;39.52;97857.56;12739324;23;20145;-79
2023/04/07 02:19:03;;;;;;;11.13;5.90;;;;;;;5.00;39.39;97856.59;12761193;23;20090;-80
2023/04/07 02:24:24;;;;;;;10.43;6.30;;;;;;;5.03;39.74;97859.03;12782775;23;20021;-81
2023/04/07 02:29:45;;;;;;;9.68;6.38;;;;;;;5.09;39.70;97862.31;12766465;23;20037;-81
2023/04/07 02:35:07;;;;;;;12.68;6.97;;;;;;;5.10;39.93;97855.50;12730337;23;20048;-79
2023/04/07 02:40:46;;;;;;;12.48;6.50;;;;;;;5.09;40.16;97847.75;12775638;23;20024;-82
2023/04/07 02:46:15;;;;;;;12.20;6.53;;;;;;;5.14;39.54;97849.59;12824125;23;20024;-80
2023/04/07 02:51:37;;;;;;;12.52;6.90;;;;;;;5.12;39.60;97846.66;12780838;23;20483;-80
2023/04/07 02:56:59;;;;;;;23.80;10.90;;;;;;;5.07;39.97;97842.03;12781382;23;20085;-82
2023/04/07 03:02:23;;;;;;;24.05;11.93;;;;;;;5.03;39.90;97838.91;12785214;23;20072;-81
2023/04/07 03:07:50;;;;;;;17.25;8.25;;;;;;;5.07;39.78;97839.28;12764965;23;20029;-81
2023/04/07 03:13:18;;;;;;;16.45;8.05;;;;;;;5.21;39.88;97839.78;12766123;23;20009;-80
2023/04/07 03:18:39;;;;;;;13.65;7.57;;;;;;;5.27;39.52;97843.84;12747136;23;20069;-82
2023/04/07 03:24:02;;;;;;;11.40;7.38;;;;;;;5.33;39.81;97833.31;12763513;23;20021;-81
2023/04/07 03:29:23;;;;;;;11.73;7.25;;;;;;;5.41;39.99;97836.09;12725713;23;20045;-82
2023/04/07 03:34:45;;;;;;;13.80;7.47;;;;;;;5.46;39.58;97824.06;12747804;23;20026;-81
2023/04/07 03:40:07;;;;;;;14.43;7.97;;;;;;;5.52;39.75;97821.09;12741302;23;20009;-79
2023/04/07 03:45:29;;;;;;;14.85;7.97;;;;;;;5.50;39.58;97829.97;12746342;23;20025;-80
2023/04/07 03:50:50;;;;;;;12.93;7.18;;;;;;;5.49;39.71;97827.72;12766047;23;20044;-80
2023/04/07 03:56:14;;;;;;;14.10;7.00;;;;;;;5.52;39.78;97819.06;12735020;23;20028;-80
2023/04/07 04:01:48;;;;;;;11.95;6.82;;;;;;;5.57;39.83;97818.09;12737238;23;20026;-81
2023/04/07 04:07:09;;;;;;;11.25;5.88;;;;;;;5.54;39.74;97813.69;12753638;23;20044;-83
2023/04/07 04:12:40;;;;;;;12.25;6.68;;;;;;;5.50;39.92;97821.66;12753855;23;20041;-81
2023/04/07 04:18:04;;;;;;;11.88;7.28;;;;;;;5.31;40.15;97832.41;12771006;23;20289;-81
2023/04/07 04:23:27;;;;;;;11.93;6.95;;;;;;;5.32;39.83;97826.31;12751333;23;20021;-81
2023/04/07 04:28:51;;;;;;;13.15;6.30;;;;;;;5.44;39.77;97829.41;12725656;23;20021;-81
2023/04/07 04:34:14;;;;;;;10.45;6.93;;;;;;;5.51;39.49;97827.94;12725269;23;20036;-79
2023/04/07 04:39:37;;;;;;;12.93;6.50;;;;;;;5.54;39.83;97830.31;12765160;23;20021;-80
2023/04/07 04:44:58;;;;;;;11.07;6.00;;;;;;;5.55;39.60;97822.75;12766468;23;20028;-79
2023/04/07 04:50:38;;;;;;;11.35;6.05;;;;;;;5.54;39.95;97824.03;12796638;23;20044;31
2023/04/07 05:02:19;;;;;;;11.25;5.90;;;;;;;5.75;39.58;97822.47;12815937;23;20032;-78
2023/04/07 05:07:42;;;;;;;11.98;6.25;;;;;;;5.86;39.73;97829.63;12681469;23;20021;-78
2023/04/07 05:13:06;;;;;;;12.98;6.03;;;;;;;6.03;39.54;97829.75;12720759;23;20337;-78
2023/04/07 05:18:29;;;;;;;11.07;5.82;;;;;;;6.22;39.58;97834.09;12734042;23;20013;-77
2023/04/07 05:23:51;;;;;;;9.70;5.60;;;;;;;6.42;39.31;97824.72;12714366;23;20464;-78
2023/04/07 05:29:15;;;;;;;12.82;6.38;;;;;;;6.63;39.02;97820.88;12716103;23;20068;-78
2023/04/07 05:34:35;;;;;;;12.88;6.85;;;;;;;6.85;38.71;97823.47;12739031;23;20024;-78
2023/04/07 05:39:56;;;;;;;12.35;6.35;;;;;;;7.12;38.69;97815.25;12674461;23;20018;-78
2023/04/07 05:45:17;;;;;;;12.80;6.70;;;;;;;7.46;38.17;97814.53;12741251;23;20019;-78
2023/04/07 05:50:41;;;;;;;9.97;6.47;;;;;;;7.89;37.88;97819.97;12700733;23;20021;-78
2023/04/07 05:56:06;;;;;;;11.23;7.05;;;;;;;8.31;37.74;97820.53;12742443;23;20707;-78
2023/04/07 06:01:34;;;;;;;11.90;6.38;;;;;;;8.66;37.09;97823.16;12702719;23;20021;-79
2023/04/07 06:06:55;;;;;;;10.98;5.70;;;;;;;9.12;36.89;97822.41;12686100;23;20025;-79
2023/04/07 06:12:16;;;;;;;11.77;6.80;;;;;;;9.65;35.96;97818.66;12745450;23;20022;-78
2023/04/07 06:17:36;;;;;;;10.57;6.78;;;;;;;10.00;35.77;97819.03;12747169;23;20017;-79
2023/04/07 06:22:57;;;;;;;13.10;7.32;;;;;;;10.38;35.26;97817.50;12728202;23;20013;-78
2023/04/07 06:28:19;;;;;;;11.68;6.75;;;;;;;10.90;35.10;97808.47;12771017;23;20464;-79
2023/04/07 06:33:41;;;;;;;10.82;7.07;;;;;;;11.46;34.43;97810.75;12753115;23;20021;-79
2023/04/07 06:39:02;;;;;;;12.82;7.00;;;;;;;13.12;34.46;97825.94;12748568;23;20017;-80
2023/04/07 06:44:22;;;;;;;13.90;7.28;;;;;;;16.16;31.73;97811.75;12736776;23;20456;-80
2023/04/07 06:49:43;;;;;;;11.32;7.00;;;;;;;19.03;30.32;97817.94;12709037;23;20014;-84
2023/04/07 06:55:06;;;;;;;11.57;7.30;;;;;;;19.53;27.61;97818.22;12735972;23;20024;-83
2023/04/07 07:00:29;;;;;;;11.40;7.68;;;;;;;18.78;27.33;97824.09;12676663;23;20017;-83
2023/04/07 07:05:51;;;;;;;11.57;7.67;;;;;;;17.62;27.17;97828.75;12726546;23;20013;-84
2023/04/07 07:11:12;;;;;;;16.27;7.80;;;;;;;16.87;27.00;97817.06;12696635;23;20304;-82
2023/04/07 07:16:33;;;;;;;12.30;7.05;;;;;;;16.82;27.07;97818.28;12735938;23;20020;-82
2023/04/07 07:21:54;;;;;;;13.52;7.47;;;;;;;17.79;26.62;97820.97;12736581;23;20021;-82
2023/04/07 07:27:15;;;;;;;12.48;7.20;;;;;;;17.49;25.33;97821.16;12737639;23;20021;-81
2023/04/07 07:32:36;;;;;;;12.45;7.13;;;;;;;16.82;25.50;97819.00;12717236;23;20017;-82
2023/04/07 07:37:57;;;;;;;15.35;6.95;;;;;;;16.74;25.27;97829.19;12737536;23;20329;-84
2023/04/07 07:43:18;;;;;;;10.88;6.28;;;;;;;17.46;25.08;97828.78;12693920;23;20400;-82
2023/04/07 07:48:39;;;;;;;10.95;6.38;;;;;;;18.13;22.81;97824.41;12716854;23;20021;-84
2023/04/07 07:54:00;;;;;;;11.18;5.93;;;;;;;18.20;23.39;97834.59;12717026;23;20021;-84
2023/04/07 07:59:20;;;;;;;10.43;5.85;;;;;;;17.44;23.17;97836.44;12718489;23;20017;-84
2023/04/07 08:04:41;;;;;;;11.57;6.30;;;;;;;16.40;23.20;97837.50;12672696;23;20349;-82
2023/04/07 08:10:02;;;;;;;13.25;6.45;;;;;;;16.33;23.13;97837.88;12658529;23;20021;-82
2023/04/07 08:15:23;;;;;;;11.65;6.00;;;;;;;16.35;23.18;97843.59;12658960;23;20341;-77
2023/04/07 08:20:45;;;;;;;10.88;6.88;;;;;;;15.98;22.95;97848.22;12637284;23;20026;-75
2023/04/07 08:26:06;;;;;;;10.00;6.28;;;;;;;15.23;22.98;97836.03;12663337;23;20018;-74
2023/04/07 08:31:27;;;;;;;10.77;6.35;;;;;;;14.47;23.24;97839.81;12681566;23;20025;-75
2023/04/07 08:36:47;;;;;;;11.82;6.80;;;;;;;13.21;24.10;97843.22;12661850;23;20029;-74
2023/04/07 08:42:09;;;;;;;10.40;5.82;;;;;;;12.62;24.36;97843.22;12682422;23;20345;-75
2023/04/07 08:47:30;;;;;;;8.02;5.38;;;;;;;12.15;25.16;97843.13;12623050;23;20025;-74
2023/04/07 08:52:55;;;;;;;8.18;4.80;;;;;;;11.94;25.38;97852.31;12664209;23;20029;-74
2023/04/07 08:58:16;;;;;;;11.27;5.45;;;;;;;11.84;25.55;97840.47;12644434;23;20022;-74
2023/04/07 09:03:37;;;;;;;10.13;6.38;;;;;;;11.85;25.39;97838.41;12702356;23;20017;-74
2023/04/07 09:08:58;;;;;;;9.18;6.25;;;;;;;12.10;25.59;97841.44;12766635;23;20425;-75
2023/04/07 09:14:20;;;;;;;12.82;6.45;;;;;;;12.20;25.95;97841.34;12745828;23;20017;-75
2023/04/07 09:19:41;;;;;;;8.43;5.60;;;;;;;12.36;25.76;97844.41;12705306;23;20490;-75
2023/04/07 09:25:12;;;;;;;11.27;5.80;;;;;;;12.56;26.11;97838.00;12745313;23;20017;-75
2023/04/07 09:30:33;;;;;;;11.45;6.22;;;;;;;12.73;25.55;97839.69;12725599;23;20017;-75
2023/04/07 09:35:54;;;;;;;10.75;6.47;;;;;;;12.72;25.46;97841.03;12791902;23;20017;-81
2023/04/07 09:41:18;;;;;;;9.55;6.30;;;;;;;13.35;25.56;97836.38;12770356;23;20008;-83
2023/04/07 09:47:05;;;;;;;10.65;6.43;;;;;;;13.85;25.54;97834.28;12742410;23;20032;-75
2023/04/07 09:52:51;;;;;;;12.07;6.03;;;;;;;14.08;24.21;97839.03;12760920;23;20034;-83
2023/04/07 09:58:19;;;;;;;9.38;6.47;;;;;;;14.93;24.80;97820.44;12832402;23;20018;-84
2023/04/07 10:03:40;;;;;;;9.00;6.60;;;;;;;16.97;24.67;97813.97;12721913;23;20029;-86
2023/04/07 10:09:01;;;;;;;11.30;6.47;;;;;;;18.85;22.98;97832.16;12740119;23;20018;-86
2023/04/07 10:14:29;;;;;;;11.90;7.22;;;;;;;17.48;21.90;97824.63;12698195;23;20025;-88
2023/04/07 10:19:50;;;;;;;12.95;7.15;;;;;;;15.76;22.46;97818.28;12700223;23;20022;-77
2023/04/07 10:25:12;;;;;;;13.48;7.85;;;;;;;14.48;23.34;97818.84;12794112;23;20013;-77
2023/04/07 10:30:33;;;;;;;11.57;6.95;;;;;;;14.05;24.08;97812.97;12751264;23;20024;-77
2023/04/07 10:36:05;;;;;;;10.20;7.25;;;;;;;13.63;24.08;97812.06;12772110;23;20029;-77
2023/04/07 10:41:35;;;;;;;12.88;7.72;;;;;;;13.26;24.58;97823.25;12766324;23;20025;-76
2023/04/07 10:47:04;;;;;;;13.10;7.82;;;;;;;13.03;25.08;97814.84;12749835;23;20044;-76
2023/04/07 10:52:25;;;;;;;10.10;7.60;;;;;;;12.92;25.02;97812.78;12751824;23;20021;-77
2023/04/07 10:58:11;;;;;;;12.13;7.28;;;;;;;13.14;25.57;97811.31;12725976;23;20097;-76
2023/04/07 11:03:33;;;;;;;11.02;6.93;;;;;;;13.32;25.22;97806.06;12741039;23;20014;-75
2023/04/07 11:08:54;;;;;;;11.65;8.02;;;;;;;13.31;25.63;97810.91;12737176;23;20330;-74
2023/04/07 11:14:30;;;;;;;13.15;7.78;;;;;;;13.25;25.60;97804.97;12717256;23;20022;-75
2023/04/07 11:19:53;;;;;;;12.75;7.93;;;;;;;12.99;25.58;97800.59;12718673;23;20021;-76
2023/04/07 11:25:20;;;;;;;11.00;7.47;;;;;;;12.77;25.93;97800.75;12719071;23;20026;-76
2023/04/07 11:30:51;;;;;;;13.15;8.00;;;;;;;13.04;26.08;97797.44;12742818;23;20018;-76
2023/04/07 11:36:12;;;;;;;11.15;7.95;;;;;;;12.98;25.84;97791.47;12721497;23;20164;-75
2023/04/07 11:41:44;;;;;;;14.73;8.10;;;;;;;12.70;26.05;97793.31;12723599;23;20017;-76
2023/04/07 11:47:05;;;;;;;10.48;7.38;;;;;;;12.84;26.35;97787.84;12705496;23;20024;-76
2023/04/07 11:52:25;;;;;;;11.80;7.07;;;;;;;12.84;26.40;97796.25;12741911;23;20021;-75
2023/04/07 11:57:46;;;;;;;10.10;6.72;;;;;;;13.17;26.34;97798.84;12742489;23;20017;-75
2023/04/07 12:03:12;;;;;;;11.98;6.70;;;;;;;13.86;26.25;97794.38;12729775;23;20332;-74
2023/04/07 12:08:42;;;;;;;13.93;7.60;;;;;;;14.25;25.95;97785.97;12758468;23;20018;-74
2023/04/07 12:14:04;;;;;;;15.43;7.80;;;;;;;14.83;25.46;97786.91;12720717;23;20014;-73
2023/04/07 12:19:27;;;;;;;13.30;7.78;;;;;;;14.98;25.21;97791.19;12741253;23;20021;-73
2023/04/07 12:24:47;;;;;;;16.00;7.70;;;;;;;15.14;25.30;97781.47;12740176;23;20081;-73
2023/04/07 12:30:08;;;;;;;13.52;7.53;;;;;;;15.56;25.00;97779.31;12777747;23;20018;-73
2023/04/07 12:35:29;;;;;;;10.85;7.00;;;;;;;15.45;24.75;97783.75;12761119;23;20029;-74
2023/04/07 12:40:50;;;;;;;11.65;7.68;;;;;;;15.11;24.78;97774.31;12760844;23;20372;-73
2023/04/07 12:46:11;;;;;;;12.85;7.25;;;;;;;14.58;25.12;97777.25;12739730;23;20329;-72
2023/04/07 12:51:32;;;;;;;12.95;7.22;;;;;;;14.65;25.27;97775.47;12719939;23;20028;-72
2023/04/07 12:56:53;;;;;;;12.02;7.75;;;;;;;14.64;25.06;97773.28;12760320;23;20018;-72
2023/04/07 13:02:16;;;;;;;13.07;7.32;;;;;;;14.59;25.05;97773.06;12750122;23;20014;-73
2023/04/07 13:07:37;;;;;;;10.23;6.38;;;;;;;14.46;25.25;97770.25;12741908;23;20485;-73
2023/04/07 13:12:58;;;;;;;10.52;7.55;;;;;;;14.40;24.99;97776.25;12760439;23;20021;-72
2023/04/07 13:18:19;;;;;;;11.80;7.40;;;;;;;14.33;25.10;97771.66;12738300;23;20013;-72
2023/04/07 13:23:39;;;;;;;21.33;12.57;;;;;;;14.31;25.35;97774.34;12769337;23;20014;-83
2023/04/07 13:29:13;;;;;;;21.65;13.32;;;;;;;14.16;25.34;97767.25;12738568;23;20006;-82
2023/04/07 13:34:35;;;;;;;14.68;9.38;;;;;;;14.16;25.59;97772.13;12787127;23;20008;-84
2023/04/07 13:39:56;;;;;;;13.50;8.88;;;;;;;13.52;25.68;97765.16;12807165;23;20020;-78
2023/04/07 13:45:16;;;;;;;13.23;8.23;;;;;;;13.41;25.95;97766.66;12775715;23;20471;-77
2023/04/07 13:50:37;;;;;;;12.35;8.13;;;;;;;13.53;26.85;97760.28;12794344;23;20024;-83
2023/04/07 13:55:58;;;;;;;12.93;8.00;;;;;;;13.62;26.98;97759.38;12834123;23;20044;-83
2023/04/07 14:01:19;;;;;;;12.88;8.43;;;;;;;13.51;26.94;97760.13;12757680;23;20017;-78
2023/04/07 14:06:40;;;;;;;11.82;7.63;;;;;;;13.30;27.23;97767.41;12774805;23;20017;-78
2023/04/07 14:12:00;;;;;;;10.95;6.95;;;;;;;13.09;27.56;97770.38;12786886;23;20017;-78
2023/04/07 14:17:21;;;;;;;14.02;7.82;;;;;;;12.75;27.48;97767.00;12768129;23;20428;-77
2023/04/07 14:22:42;;;;;;;12.20;6.80;;;;;;;12.50;28.04;97758.50;12788019;23;20009;-77
2023/04/07 14:28:02;;;;;;;14.68;7.78;;;;;;;12.43;28.28;97760.19;12767156;23;20017;-77
2023/04/07 14:33:23;;;;;;;11.20;7.53;;;;;;;12.30;28.93;97749.59;12768025;23;20024;-77
2023/04/07 14:38:44;;;;;;;11.27;6.78;;;;;;;12.45;28.95;97751.19;12788666;23;20341;-77
2023/04/07 14:44:05;;;;;;;10.93;6.78;;;;;;;12.67;29.17;97738.53;12807062;23;20451;-77
2023/04/07 14:49:27;;;;;;;11.00;6.60;;;;;;;12.80;29.07;97742.75;12785101;23;20017;-77
2023/04/07 14:54:48;;;;;;;12.63;6.50;;;;;;;12.51;29.17;97743.16;12768370;23;20021;-77
2023/04/07 15:00:10;;;;;;;9.27;5.70;;;;;;;12.64;29.40;97745.31;12764661;23;20020;-77
2023/04/07 15:05:31;;;;;;;10.88;5.60;;;;;;;13.01;29.50;97748.19;12756400;23;20336;-77
2023/04/07 15:10:52;;;;;;;8.52;5.28;;;;;;;13.20;29.25;97750.00;12764231;23;20025;-77
2023/04/07 15:16:13;;;;;;;8.40;5.47;;;;;;;13.00;29.27;97749.53;12805139;23;20017;-77
2023/04/07 15:21:34;;;;;;;9.57;4.97;;;;;;;12.71;29.75;97749.94;12781415;23;20254;-76
2023/04/07 15:26:54;;;;;;;12.15;6.65;;;;;;;12.17;30.03;97745.34;12787928;23;20432;-78
2023/04/07 15:32:15;;;;;;;10.65;6.63;;;;;;;11.96;30.45;97739.81;12787239;23;20028;-78
2023/04/07 15:37:37;;;;;;;13.90;7.80;;;;;;;11.83;30.96;97743.19;12765153;23;20017;-77
2023/04/07 15:42:58;;;;;;;11.95;7.30;;;;;;;11.55;31.53;97742.84;12783932;23;20021;-77
2023/04/07 15:48:19;;;;;;;11.60;6.72;;;;;;;11.22;32.22;97739.31;12788054;23;20020;-78
2023/04/07 15:53:40;;;;;;;11.68;6.45;;;;;;;11.02;32.90;97736.66;12768853;23;20017;-82
2023/04/07 15:59:01;;;;;;;11.38;5.70;;;;;;;11.05;32.88;97731.94;12762351;23;20435;-79
2023/04/07 16:04:24;;;;;;;10.38;6.40;;;;;;;11.08;33.10;97734.25;12732560;23;20022;-80
2023/04/07 16:16:10;;;;;;;11.23;7.10;;;;;;;10.94;34.26;97733.34;12832031;23;20025;-79
2023/04/07 16:21:31;;;;;;;12.77;7.03;;;;;;;10.92;34.09;97733.22;12786258;23;20101;-82
2023/04/07 16:26:54;;;;;;;10.43;7.03;;;;;;;10.85;33.80;97739.72;12783209;23;20025;-80
2023/04/07 16:32:16;;;;;;;11.70;6.85;;;;;;;10.86;34.37;97741.19;12774463;23;20028;-80
2023/04/07 16:37:37;;;;;;;11.73;7.43;;;;;;;10.80;34.56;97741.50;12761355;23;20020;-81
2023/04/07 16:42:57;;;;;;;11.80;7.13;;;;;;;10.53;34.27;97741.81;12785980;23;20025;-79
2023/04/07 16:48:18;;;;;;;12.45;7.30;;;;;;;10.44;35.41;97737.00;12799232;23;20047;-81
2023/04/07 16:53:39;;;;;;;13.00;7.25;;;;;;;10.44;35.74;97753.75;12776614;23;20014;-81
2023/04/07 16:59:00;;;;;;;16.63;7.32;;;;;;;10.34;35.75;97766.28;12805137;23;20021;-77
2023/04/07 17:04:23;;;;;;;11.75;7.43;;;;;;;10.20;35.86;97768.78;12745498;23;20021;-78
2023/04/07 17:09:44;;;;;;;11.93;7.00;;;;;;;10.17;36.20;97767.91;12747445;23;20467;-78
2023/04/07 17:15:06;;;;;;;13.40;7.78;;;;;;;10.03;36.27;97773.22;12752965;23;20018;-79
2023/04/07 17:20:26;;;;;;;12.85;7.28;;;;;;;10.01;36.57;97775.88;12771396;23;20344;-81
2023/04/07 17:25:49;;;;;;;13.70;8.15;;;;;;;9.93;36.52;97786.47;12741921;23;20017;-77
2023/04/07 17:31:12;;;;;;;12.82;8.25;;;;;;;9.85;36.88;97788.69;12787028;23;20021;-78
2023/04/07 17:36:33;;;;;;;14.73;7.47;;;;;;;9.86;37.36;97803.38;12759259;23;20048;-80
2023/04/07 17:41:53;;;;;;;16.75;9.30;;;;;;;9.81;37.65;97798.81;12808367;23;20020;-82
2023/04/07 17:47:14;;;;;;;14.07;8.20;;;;;;;9.69;37.73;97807.06;12815679;23;20004;-85
2023/04/07 17:52:52;;;;;;;13.95;7.32;;;;;;;9.55;37.92;97815.09;12788155;22;20455;-76
2023/04/07 17:58:12;;;;;;;11.88;6.30;;;;;;;9.50;38.57;97823.78;12849114;23;20019;-77
2023/04/07 18:03:33;;;;;;;9.65;6.13;;;;;;;9.43;38.70;97828.16;12823520;23;20012;-76
2023/04/07 18:08:55;;;;;;;12.25;6.80;;;;;;;9.31;39.45;97828.00;12854854;23;20016;-80
2023/04/07 18:14:16;;;;;;;13.50;6.20;;;;;;;9.27;39.62;97824.94;12804567;23;20340;-76
2023/04/07 18:19:36;;;;;;;9.52;6.40;;;;;;;9.26;39.72;97831.06;12824396;23;20013;-76
2023/04/07 18:24:59;;;;;;;11.60;7.05;;;;;;;9.20;40.86;97839.00;12844313;23;20012;-76
2023/04/07 18:30:21;;;;;;;15.15;6.20;;;;;;;9.18;39.96;97847.94;12844867;23;20024;-76
2023/04/07 18:35:42;;;;;;;10.85;6.70;;;;;;;9.06;40.88;97841.44;12824897;23;20043;-76
2023/04/07 18:41:04;;;;;;;14.18;6.68;;;;;;;9.10;41.51;97848.06;12845946;23;20040;-76
2023/04/07 18:46:26;;;;;;;12.05;7.40;;;;;;;9.03;41.51;97859.31;12827513;23;20019;-75
2023/04/07 18:51:47;;;;;;;12.02;6.75;;;;;;;8.96;41.59;97851.81;12860217;23;20331;-75
2023/04/07 18:57:07;;;;;;;10.63;7.07;;;;;;;8.84;41.67;97860.00;12843834;23;20017;-75
2023/04/07 19:02:28;;;;;;;11.82;6.72;;;;;;;8.83;41.85;97869.66;12865890;23;20016;-76
2023/04/07 19:07:49;;;;;;;12.95;7.15;;;;;;;8.86;41.65;97862.94;12827636;23;20017;-75
2023/04/07 19:13:11;;;;;;;12.23;6.97;;;;;;;8.82;42.69;97866.16;12848721;23;20350;-76
2023/04/07 19:18:33;;;;;;;11.77;7.07;;;;;;;8.74;42.30;97871.09;12821643;23;20017;-75
2023/04/07 19:23:55;;;;;;;12.38;7.57;;;;;;;8.62;42.88;97869.44;12841283;23;20012;-76
2023/04/07 19:29:16;;;;;;;12.40;6.88;;;;;;;8.54;44.32;97880.69;12862951;23;20012;-76
2023/04/07 19:34:37;;;;;;;11.48;7.13;;;;;;;8.38;44.18;97884.97;12821061;23;20432;-75
2023/04/07 19:39:57;;;;;;;11.43;6.88;;;;;;;8.38;44.67;97896.09;12820635;23;20012;-75
2023/04/07 19:45:22;;;;;;;11.90;7.10;;;;;;;8.28;44.40;97891.19;12842539;23;20328;-74
2023/04/07 19:50:48;;;;;;;11.93;8.18;;;;;;;8.16;45.85;97890.22;12857929;23;20415;-73
2023/04/07 19:56:10;;;;;;;13.45;8.13;;;;;;;8.09;46.64;97890.31;12842218;23;20028;-73
2023/04/07 20:01:31;;;;;;;14.48;8.05;;;;;;;8.02;47.94;97900.25;12858186;23;19997;-84
2023/04/07 20:06:52;;;;;;;13.60;7.88;;;;;;;7.94;47.65;97894.78;12794781;23;20099;-79
2023/04/07 20:12:13;;;;;;;14.30;9.20;;;;;;;7.95;48.28;97901.78;12808595;23;20020;-79
2023/04/07 20:17:35;;;;;;;14.50;8.77;;;;;;;7.86;48.82;97896.16;12827887;23;20016;-79
2023/04/07 20:23:01;;;;;;;12.85;8.00;;;;;;;7.80;49.24;97907.50;12833158;23;20067;-78
2023/04/07 20:28:36;;;;;;;13.10;8.73;;;;;;;7.69;49.82;97900.41;12858542;23;20016;-78
2023/04/07 20:33:57;;;;;;;14.27;8.32;;;;;;;7.72;49.93;97898.53;12782471;23;20020;-78
2023/04/07 20:39:18;;;;;;;13.27;9.00;;;;;;;7.64;51.14;97906.97;12832514;23;20016;-79
2023/04/07 20:44:39;;;;;;;14.13;8.55;;;;;;;7.61;51.80;97905.31;12823726;23;20017;-78
2023/04/07 20:50:01;;;;;;;13.43;8.55;;;;;;;7.57;51.80;97895.91;12803344;23;20024;-79
2023/04/07 20:55:21;;;;;;;16.90;9.38;;;;;;;7.60;52.32;97906.63;12847674;23;20017;-79
2023/04/07 21:00:42;;;;;;;12.60;8.55;;;;;;;7.55;52.86;97904.81;12825019;23;20013;-78
2023/04/07 21:06:03;;;;;;;13.63;8.63;;;;;;;7.55;53.04;97898.53;12809558;23;20020;-78
2023/04/07 21:11:24;;;;;;;14.32;8.75;;;;;;;7.54;53.49;97897.81;12866912;23;20021;-78
2023/04/07 21:16:45;;;;;;;17.27;9.02;;;;;;;7.52;53.08;97899.66;12825881;23;20039;-78
2023/04/07 21:22:06;;;;;;;13.13;7.22;;;;;;;7.47;53.99;97898.59;12825835;23;20019;-78
2023/04/07 21:27:28;;;;;;;11.75;8.13;;;;;;;7.41;53.07;97900.88;12824439;23;20440;-78
2023/04/07 21:32:49;;;;;;;13.45;8.07;;;;;;;7.35;54.01;97892.06;12824704;23;20071;-79
2023/04/07 21:38:09;;;;;;;10.23;7.75;;;;;;;7.35;53.51;97887.25;12783011;23;20436;-78
2023/04/07 21:43:31;;;;;;;13.40;8.05;;;;;;;7.33;54.67;97889.09;12803714;23;20016;-79
2023/04/07 21:48:52;;;;;;;11.73;8.30;;;;;;;7.35;55.32;97886.50;12825093;23;20020;-78
2023/04/07 21:54:12;;;;;;;16.17;7.60;;;;;;;7.35;54.74;97886.50;12844527;23;20017;-79
2023/04/07 21:59:34;;;;;;;10.60;7.38;;;;;;;7.30;55.28;97873.59;12825055;23;20024;-79
2023/04/07 22:04:55;;;;;;;12.52;8.13;;;;;;;7.33;54.95;97886.31;12814558;23;20431;-79
2023/04/07 22:10:16;;;;;;;14.35;7.80;;;;;;;7.34;54.81;97883.00;12823529;23;20013;-78
2023/04/07 22:15:37;;;;;;;16.23;7.82;;;;;;;7.30;55.46;97879.13;12783807;23;20024;-79
2023/04/07 22:20:58;;;;;;;12.35;6.93;;;;;;;7.34;55.39;97879.50;12824994;23;20024;-79
2023/04/07 22:26:19;;;;;;;11.70;6.93;;;;;;;7.26;55.85;97889.94;12825484;23;20013;-78
2023/04/07 22:31:40;;;;;;;14.00;6.78;;;;;;;7.15;56.33;97889.09;12846873;23;20017;-79
2023/04/07 22:37:01;;;;;;;9.80;6.20;;;;;;;7.13;56.70;97882.63;12804521;23;20032;-79
2023/04/07 22:42:22;;;;;;;12.68;7.10;;;;;;;7.07;57.37;97891.19;12846264;23;20067;-79
2023/04/07 22:47:43;;;;;;;11.27;6.68;;;;;;;7.00;58.01;97883.66;12824254;23;20024;-79
2023/04/07 22:53:06;;;;;;;10.07;5.70;;;;;;;7.02;57.67;97888.63;12823993;23;20016;-79
2023/04/07 22:58:26;;;;;;;8.52;5.57;;;;;;;6.97;59.16;97892.38;12824218;23;20017;-78
2023/04/07 23:03:47;;;;;;;11.32;6.40;;;;;;;6.90;58.44;97891.13;12840054;23;20016;-79
2023/04/07 23:09:09;;;;;;;11.35;6.95;;;;;;;6.89;59.39;97892.44;12845922;23;20017;-79
2023/04/07 23:14:30;;;;;;;8.38;6.30;;;;;;;6.92;59.29;97896.84;12848448;23;20024;-78
2023/04/07 23:19:50;;;;;;;12.10;7.55;;;;;;;6.89;59.88;97889.66;12858533;23;20013;-79
2023/04/07 23:25:11;;;;;;;11.20;6.97;;;;;;;6.86;60.27;97890.81;12874736;23;20052;-78
2023/04/07 23:30:32;;;;;;;11.00;6.63;;;;;;;6.87;60.68;97895.78;12845780;23;20019;-78
2023/04/07 23:35:54;;;;;;;11.55;7.30;;;;;;;6.76;60.92;97887.91;12827571;23;20020;-79
2023/04/07 23:41:15;;;;;;;11.02;8.05;;;;;;;6.73;60.76;97891.81;12828804;23;20448;-78
2023/04/07 23:46:35;;;;;;;11.90;8.15;;;;;;;6.74;60.65;97892.53;12845950;23;20027;-79
2023/04/07 23:51:56;;;;;;;15.02;8.52;;;;;;;6.73;60.89;97886.25;12868816;23;20016;-79
2023/04/07 23:57:17;;;;;;;15.20;8.18;;;;;;;6.65;62.20;97885.56;12846187;23;20027;-79
